Time;durP1;ratioP1;P1;durP2;ratioP2;P2;SDS_P1;SDS_P2;PMS_P1;PMS_P2;Temp;Humidity;BMP_temperature;BMP_pressure;BME280_temperature;BME280_humidity;BME280_pressure;Samples;Min_cycle;Max_cycle;Signal;HPM_P1;HPM_P2
2023/12/08 00:00:46;;;;;;;33.47;19.73;;;;;;;;;;5012807;28;20425;-76
2023/12/08 00:03:12;;;;;;;36.47;20.80;;;;;;;;;;5013146;28;20941;-77
2023/12/08 00:05:38;;;;;;;39.33;20.57;;;;;;;;;;5012418;28;20476;-77
2023/12/08 00:08:04;;;;;;;30.60;18.60;;;;;;;;;;5015750;28;20567;-76
2023/12/08 00:10:30;;;;;;;33.90;19.87;;;;;;;;;;5019656;28;20765;-76
2023/12/08 00:12:56;;;;;;;35.67;19.47;;;;;;;;;;5035796;28;20459;-78
2023/12/08 00:15:22;;;;;;;33.70;19.37;;;;;;;;;;5058533;28;20491;-77
2023/12/08 00:17:48;;;;;;;33.30;20.70;;;;;;;;;;5058995;28;20424;-78
2023/12/08 00:20:14;;;;;;;32.07;18.80;;;;;;;;;;5059026;28;20401;-77
2023/12/08 00:22:40;;;;;;;35.77;19.70;;;;;;;;;;5057398;28;20429;-77
2023/12/08 00:25:06;;;;;;;33.03;18.70;;;;;;;;;;5058373;28;20471;-76
2023/12/08 00:27:32;;;;;;;31.33;18.43;;;;;;;;;;5058662;28;20419;-76
2023/12/08 00:29:58;;;;;;;30.90;17.20;;;;;;;;;;5062657;28;20817;-77
2023/12/08 00:32:24;;;;;;;38.63;20.63;;;;;;;;;;5066298;28;20468;-76
2023/12/08 00:34:50;;;;;;;33.67;18.70;;;;;;;;;;5068803;28;20471;-78
2023/12/08 00:37:16;;;;;;;28.80;17.87;;;;;;;;;;5064369;28;20890;-77
2023/12/08 00:39:42;;;;;;;32.07;18.10;;;;;;;;;;5059227;28;20455;-78
2023/12/08 00:42:08;;;;;;;30.50;17.17;;;;;;;;;;5066296;28;20511;-78
2023/12/08 00:44:34;;;;;;;31.63;16.77;;;;;;;;;;5069051;28;20773;-76
2023/12/08 00:47:00;;;;;;;29.23;17.73;;;;;;;;;;5066694;28;20987;-76
2023/12/08 00:49:26;;;;;;;36.00;17.87;;;;;;;;;;5064303;28;20421;-79
2023/12/08 00:51:52;;;;;;;34.00;18.97;;;;;;;;;;5068543;28;20510;-77
2023/12/08 00:54:17;;;;;;;28.53;16.40;;;;;;;;;;5048978;28;20413;-77
2023/12/08 00:56:43;;;;;;;31.40;19.27;;;;;;;;;;5023779;28;20432;-78
2023/12/08 00:59:09;;;;;;;33.97;19.57;;;;;;;;;;5062093;28;20780;-77
2023/12/08 01:01:35;;;;;;;30.83;18.50;;;;;;;;;;5058769;28;20415;-77
2023/12/08 01:04:01;;;;;;;28.60;15.93;;;;;;;;;;5058853;28;20424;-79
2023/12/08 01:06:27;;;;;;;28.90;16.87;;;;;;;;;;5058790;28;20886;-76
2023/12/08 01:08:53;;;;;;;33.20;19.27;;;;;;;;;;5058884;28;20410;-80
2023/12/08 01:11:19;;;;;;;29.50;16.20;;;;;;;;;;5058213;28;20423;-79
2023/12/08 01:13:45;;;;;;;32.80;18.00;;;;;;;;;;5057191;28;20460;-76
2023/12/08 01:16:11;;;;;;;32.57;18.30;;;;;;;;;;5058559;28;20437;-78
2023/12/08 01:18:37;;;;;;;32.03;18.17;;;;;;;;;;5058658;28;20404;-75
2023/12/08 01:21:03;;;;;;;30.00;17.10;;;;;;;;;;5054885;28;20419;-76
2023/12/08 01:23:29;;;;;;;31.97;19.43;;;;;;;;;;5055689;28;20403;-77
2023/12/08 01:25:57;;;;;;;30.60;17.60;;;;;;;;;;5037497;28;20487;-78
2023/12/08 01:28:23;;;;;;;29.13;17.80;;;;;;;;;;5055516;28;20418;-78
2023/12/08 01:30:49;;;;;;;26.63;15.00;;;;;;;;;;5055138;28;20401;-79
2023/12/08 01:33:15;;;;;;;33.03;19.30;;;;;;;;;;5037579;28;20471;-79
2023/12/08 01:35:41;;;;;;;32.20;18.60;;;;;;;;;;5055454;28;20414;-77
2023/12/08 01:38:08;;;;;;;35.23;18.73;;;;;;;;;;5037456;28;20772;-78
2023/12/08 01:40:34;;;;;;;34.47;18.60;;;;;;;;;;5055304;28;20564;-76
2023/12/08 01:43:00;;;;;;;34.50;19.03;;;;;;;;;;5055269;28;20973;-76
2023/12/08 01:45:25;;;;;;;34.03;18.00;;;;;;;;;;5054765;28;20456;-78
2023/12/08 01:47:51;;;;;;;32.83;21.07;;;;;;;;;;5037262;28;20523;-77
2023/12/08 01:50:18;;;;;;;26.23;16.40;;;;;;;;;;5055106;28;20406;-77
2023/12/08 01:52:44;;;;;;;32.93;18.63;;;;;;;;;;5055078;28;20449;-78
2023/12/08 01:55:10;;;;;;;34.80;19.67;;;;;;;;;;5054991;28;20519;-77
2023/12/08 01:57:36;;;;;;;33.03;18.27;;;;;;;;;;5054915;28;20414;-77
2023/12/08 02:00:02;;;;;;;31.87;19.40;;;;;;;;;;5036561;28;20791;-77
2023/12/08 02:02:28;;;;;;;34.97;19.27;;;;;;;;;;5054854;28;20413;-77
2023/12/08 02:04:58;;;;;;;29.83;19.10;;;;;;;;;;5054744;28;20400;-79
2023/12/08 02:07:24;;;;;;;33.73;17.87;;;;;;;;;;5054705;28;20566;-77
2023/12/08 02:09:50;;;;;;;29.37;17.97;;;;;;;;;;5054327;28;20955;-76
2023/12/08 02:12:16;;;;;;;32.00;19.33;;;;;;;;;;5036660;28;20476;-77
2023/12/08 02:14:42;;;;;;;32.40;18.03;;;;;;;;;;5054332;28;20421;-77
2023/12/08 02:17:13;;;;;;;32.47;18.57;;;;;;;;;;5054657;28;20509;-79
2023/12/08 02:19:41;;;;;;;30.07;17.77;;;;;;;;;;5054079;28;20417;-79
2023/12/08 02:22:18;;;;;;;32.87;17.27;;;;;;;;;;5038313;28;20442;-76
2023/12/08 02:24:44;;;;;;;30.93;18.27;;;;;;;;;;5055520;28;20415;-80
2023/12/08 02:27:14;;;;;;;29.47;17.83;;;;;;;;;;5053912;28;20980;-76
2023/12/08 02:29:39;;;;;;;32.53;19.80;;;;;;;;;;5036048;28;20465;-78
2023/12/08 02:32:26;;;;;;;30.67;18.63;;;;;;;;;;5052955;28;20461;-77
2023/12/08 02:34:52;;;;;;;29.37;18.10;;;;;;;;;;5003865;28;20451;-78
2023/12/08 02:37:19;;;;;;;30.33;16.13;;;;;;;;;;5036226;28;20513;-76
2023/12/08 02:39:48;;;;;;;28.87;17.93;;;;;;;;;;5054147;28;20485;-77
2023/12/08 02:42:14;;;;;;;31.00;16.87;;;;;;;;;;5054122;28;20785;-77
2023/12/08 02:44:40;;;;;;;31.27;17.70;;;;;;;;;;5053733;28;20427;-78
2023/12/08 02:47:06;;;;;;;30.20;18.23;;;;;;;;;;5053972;28;20472;-76
2023/12/08 02:49:33;;;;;;;31.00;17.60;;;;;;;;;;5053952;28;20914;-77
2023/12/08 02:51:59;;;;;;;33.10;19.03;;;;;;;;;;5053803;28;20418;-78
2023/12/08 02:54:25;;;;;;;26.60;15.30;;;;;;;;;;5053680;28;21123;-78
2023/12/08 02:56:51;;;;;;;30.57;18.30;;;;;;;;;;5053895;28;20413;-78
2023/12/08 02:59:17;;;;;;;29.80;16.53;;;;;;;;;;5035568;28;20828;-78
2023/12/08 03:01:43;;;;;;;27.37;16.17;;;;;;;;;;5053745;28;20416;-76
2023/12/08 03:04:09;;;;;;;27.30;15.77;;;;;;;;;;5053591;28;20415;-79
2023/12/08 03:06:34;;;;;;;32.80;15.83;;;;;;;;;;5053674;28;20564;-78
2023/12/08 03:09:00;;;;;;;29.67;16.87;;;;;;;;;;5053582;28;20499;-79
2023/12/08 03:11:26;;;;;;;30.10;17.23;;;;;;;;;;5053633;28;20918;-81
2023/12/08 03:13:52;;;;;;;27.43;16.13;;;;;;;;;;5035080;28;20491;-79
2023/12/08 03:16:18;;;;;;;31.97;15.33;;;;;;;;;;5053525;28;20485;-77
2023/12/08 03:18:44;;;;;;;30.43;17.57;;;;;;;;;;5053422;28;20505;-79
2023/12/08 03:21:20;;;;;;;26.90;14.60;;;;;;;;;;5053403;28;20561;-77
2023/12/08 03:23:46;;;;;;;21.70;12.67;;;;;;;;;;5053368;28;20490;-81
2023/12/08 03:26:12;;;;;;;22.70;14.77;;;;;;;;;;5053189;28;21085;-76
2023/12/08 03:28:37;;;;;;;24.33;13.70;;;;;;;;;;5053000;28;20412;-78
2023/12/08 03:31:03;;;;;;;27.27;15.87;;;;;;;;;;5053108;28;20759;-80
2023/12/08 03:33:29;;;;;;;25.23;14.83;;;;;;;;;;5053270;28;20404;-79
2023/12/08 03:35:55;;;;;;;24.80;14.33;;;;;;;;;;5053064;28;20404;-80
2023/12/08 03:38:21;;;;;;;25.93;14.50;;;;;;;;;;5053123;28;20903;-78
2023/12/08 03:40:47;;;;;;;24.43;14.93;;;;;;;;;;5053083;28;20425;-79
2023/12/08 03:43:13;;;;;;;27.90;16.20;;;;;;;;;;5052607;28;20492;-76
2023/12/08 03:45:42;;;;;;;28.20;16.10;;;;;;;;;;5052589;28;20459;-76
2023/12/08 03:48:08;;;;;;;24.17;13.77;;;;;;;;;;5053008;28;20412;-78
2023/12/08 03:50:34;;;;;;;26.77;16.07;;;;;;;;;;5052835;28;20900;-80
2023/12/08 03:53:00;;;;;;;24.40;14.10;;;;;;;;;;5052889;28;20424;-76
2023/12/08 03:55:25;;;;;;;23.83;15.57;;;;;;;;;;5052907;28;20407;-76
2023/12/08 03:57:51;;;;;;;21.33;14.40;;;;;;;;;;5052727;28;20972;-78
2023/12/08 04:00:18;;;;;;;24.57;14.77;;;;;;;;;;5052510;28;20465;-79
2023/12/08 04:02:43;;;;;;;24.23;15.40;;;;;;;;;;5052877;28;20419;-80
2023/12/08 04:05:09;;;;;;;25.20;14.60;;;;;;;;;;5052640;28;20404;-79
2023/12/08 04:07:35;;;;;;;24.03;13.70;;;;;;;;;;5052762;28;20415;-77
2023/12/08 04:10:01;;;;;;;20.00;11.70;;;;;;;;;;5052677;28;20542;-76
2023/12/08 04:12:27;;;;;;;23.43;13.67;;;;;;;;;;5052519;28;20460;-76
2023/12/08 04:14:53;;;;;;;22.57;14.73;;;;;;;;;;5034416;28;20428;-77
2023/12/08 04:17:19;;;;;;;21.40;13.07;;;;;;;;;;5052584;28;20439;-76
2023/12/08 04:19:45;;;;;;;21.93;13.23;;;;;;;;;;5052736;28;20409;-77
2023/12/08 04:22:10;;;;;;;19.23;12.93;;;;;;;;;;5034789;28;20419;-79
2023/12/08 04:24:36;;;;;;;23.03;11.07;;;;;;;;;;5052619;28;20413;-77
2023/12/08 04:27:02;;;;;;;22.47;12.40;;;;;;;;;;5052531;28;20478;-78
2023/12/08 04:29:28;;;;;;;20.10;13.63;;;;;;;;;;5034386;28;20908;-80
2023/12/08 04:31:54;;;;;;;26.30;14.87;;;;;;;;;;5052560;28;20924;-76
2023/12/08 04:34:20;;;;;;;26.83;13.27;;;;;;;;;;5052548;28;20412;-78
2023/12/08 04:36:46;;;;;;;18.13;11.50;;;;;;;;;;5052498;28;20473;-77
2023/12/08 04:39:12;;;;;;;19.60;11.00;;;;;;;;;;5052449;28;20780;-78
2023/12/08 04:41:38;;;;;;;21.30;13.07;;;;;;;;;;5052465;28;20497;-78
2023/12/08 04:44:04;;;;;;;21.60;13.20;;;;;;;;;;5052022;28;20551;-77
2023/12/08 04:46:42;;;;;;;19.67;12.20;;;;;;;;;;5052330;28;20476;-75
2023/12/08 04:49:08;;;;;;;20.87;11.60;;;;;;;;;;5052226;28;20425;-77
2023/12/08 04:51:35;;;;;;;18.70;12.20;;;;;;;;;;5052454;28;20411;-76
2023/12/08 04:54:01;;;;;;;21.20;12.80;;;;;;;;;;5052276;28;20416;-77
2023/12/08 04:56:27;;;;;;;20.77;13.27;;;;;;;;;;5055921;28;20404;-77
2023/12/08 04:58:53;;;;;;;20.60;12.23;;;;;;;;;;5014156;28;20455;-77
2023/12/08 05:01:19;;;;;;;20.87;12.17;;;;;;;;;;5056097;28;20830;-77
2023/12/08 05:03:45;;;;;;;23.13;13.50;;;;;;;;;;5055912;28;20455;-78
2023/12/08 05:06:11;;;;;;;21.83;12.70;;;;;;;;;;5055115;28;20491;-76
2023/12/08 05:08:37;;;;;;;19.13;10.00;;;;;;;;;;5056004;28;20496;-76
2023/12/08 05:11:03;;;;;;;22.63;12.77;;;;;;;;;;5055902;28;20849;-77
2023/12/08 05:13:29;;;;;;;23.50;13.07;;;;;;;;;;5055423;28;20494;-77
2023/12/08 05:15:54;;;;;;;20.57;11.77;;;;;;;;;;5056062;28;20472;-77
2023/12/08 05:18:20;;;;;;;20.80;12.13;;;;;;;;;;5055587;28;20477;-77
2023/12/08 05:20:46;;;;;;;21.03;13.97;;;;;;;;;;5055425;28;20417;-76
2023/12/08 05:23:12;;;;;;;22.47;12.67;;;;;;;;;;5055686;28;20412;-76
2023/12/08 05:25:38;;;;;;;19.97;12.00;;;;;;;;;;5055660;28;20476;-77
2023/12/08 05:28:04;;;;;;;27.10;15.30;;;;;;;;;;5055268;28;20916;-77
2023/12/08 05:30:30;;;;;;;22.03;12.70;;;;;;;;;;5055607;28;20487;-77
2023/12/08 05:32:56;;;;;;;24.57;14.40;;;;;;;;;;5055343;28;20423;-77
2023/12/08 05:35:22;;;;;;;22.17;14.83;;;;;;;;;;5055370;28;20417;-76
2023/12/08 05:37:48;;;;;;;24.37;13.20;;;;;;;;;;5055356;28;20883;-76
2023/12/08 05:40:14;;;;;;;22.93;15.07;;;;;;;;;;5055381;28;20423;-75
2023/12/08 05:42:40;;;;;;;20.77;13.30;;;;;;;;;;5055279;28;20412;-77
2023/12/08 05:45:06;;;;;;;21.37;13.70;;;;;;;;;;5055032;28;20409;-76
2023/12/08 05:47:32;;;;;;;26.37;14.70;;;;;;;;;;5055349;28;20529;-77
2023/12/08 05:49:58;;;;;;;25.30;15.47;;;;;;;;;;5055309;28;20897;-77
2023/12/08 05:52:24;;;;;;;24.77;13.93;;;;;;;;;;5055155;28;20423;-76
2023/12/08 05:54:50;;;;;;;25.20;15.03;;;;;;;;;;5055154;28;20422;-75
2023/12/08 05:57:16;;;;;;;27.87;14.20;;;;;;;;;;5055061;28;20413;-77
2023/12/08 05:59:41;;;;;;;24.50;13.93;;;;;;;;;;5054823;28;20416;-77
2023/12/08 06:02:07;;;;;;;24.53;15.53;;;;;;;;;;5054958;28;20406;-80
2023/12/08 06:04:33;;;;;;;30.50;16.60;;;;;;;;;;5054987;28;20771;-78
2023/12/08 06:06:59;;;;;;;27.27;15.47;;;;;;;;;;5036543;28;20471;-76
2023/12/08 06:09:25;;;;;;;29.50;15.47;;;;;;;;;;5054822;28;20404;-76
2023/12/08 06:11:51;;;;;;;23.60;14.17;;;;;;;;;;5054868;28;20417;-78
2023/12/08 06:14:17;;;;;;;25.63;15.17;;;;;;;;;;5054039;28;20452;-78
2023/12/08 06:16:43;;;;;;;20.20;13.23;;;;;;;;;;5054734;28;20415;-78
2023/12/08 06:19:09;;;;;;;25.00;14.93;;;;;;;;;;5054800;28;20408;-78
2023/12/08 06:21:35;;;;;;;24.73;14.43;;;;;;;;;;5054487;28;20770;-77
2023/12/08 06:24:01;;;;;;;25.33;15.97;;;;;;;;;;5054573;28;20460;-78
2023/12/08 06:26:27;;;;;;;26.93;17.13;;;;;;;;;;5054400;28;20497;-79
2023/12/08 06:28:53;;;;;;;28.40;16.60;;;;;;;;;;5054283;28;20409;-78
2023/12/08 06:31:19;;;;;;;25.63;13.83;;;;;;;;;;5054459;28;20447;-77
2023/12/08 06:33:45;;;;;;;30.37;17.80;;;;;;;;;;5054364;28;20408;-76
2023/12/08 06:36:11;;;;;;;25.87;15.90;;;;;;;;;;5054240;28;20901;-77
2023/12/08 06:38:38;;;;;;;27.53;15.93;;;;;;;;;;5054122;28;20938;-77
2023/12/08 06:41:04;;;;;;;31.80;16.30;;;;;;;;;;5036326;28;20987;-76
2023/12/08 06:43:30;;;;;;;31.27;18.23;;;;;;;;;;5053733;28;20908;-76
2023/12/08 06:45:56;;;;;;;27.33;15.77;;;;;;;;;;5054103;28;20491;-77
2023/12/08 06:48:23;;;;;;;31.27;18.20;;;;;;;;;;5054119;28;20509;-78
2023/12/08 06:50:49;;;;;;;33.07;17.43;;;;;;;;;;5013258;28;20465;-75
2023/12/08 06:53:16;;;;;;;31.47;19.03;;;;;;;;;;5053834;28;20566;-76
2023/12/08 06:55:42;;;;;;;27.00;18.10;;;;;;;;;;5053759;28;20517;-78
2023/12/08 06:58:08;;;;;;;31.47;18.37;;;;;;;;;;5053442;28;20413;-79
2023/12/08 07:00:34;;;;;;;29.67;18.10;;;;;;;;;;5053303;28;20416;-77
2023/12/08 07:03:00;;;;;;;24.33;13.63;;;;;;;;;;5053110;28;20805;-78
2023/12/08 07:05:26;;;;;;;31.37;20.03;;;;;;;;;;5052908;28;20419;-78
2023/12/08 07:07:52;;;;;;;29.53;18.70;;;;;;;;;;5053201;28;20480;-78
2023/12/08 07:10:18;;;;;;;30.43;16.40;;;;;;;;;;5052783;28;20478;-79
2023/12/08 07:12:44;;;;;;;28.37;16.50;;;;;;;;;;5052417;28;20458;-78
2023/12/08 07:15:16;;;;;;;33.60;17.57;;;;;;;;;;5053145;28;21300;-76
2023/12/08 07:17:42;;;;;;;30.43;17.03;;;;;;;;;;5052951;28;20422;-78
2023/12/08 07:20:11;;;;;;;29.47;17.10;;;;;;;;;;5053383;28;20405;-77
2023/12/08 07:22:37;;;;;;;30.70;18.97;;;;;;;;;;5053651;28;20741;-78
2023/12/08 07:25:07;;;;;;;31.93;17.93;;;;;;;;;;5053838;28;20415;-78
2023/12/08 07:27:32;;;;;;;29.93;16.60;;;;;;;;;;5053263;28;20960;-78
2023/12/08 07:29:59;;;;;;;31.30;17.20;;;;;;;;;;5053006;28;20453;-78
2023/12/08 07:32:25;;;;;;;28.57;16.53;;;;;;;;;;5053335;28;20411;-79
2023/12/08 07:34:51;;;;;;;29.97;19.10;;;;;;;;;;5068663;28;20799;-79
2023/12/08 07:37:17;;;;;;;22.50;14.07;;;;;;;;;;5053277;28;20529;-79
2023/12/08 07:39:43;;;;;;;26.10;15.30;;;;;;;;;;5053310;28;20415;-79
2023/12/08 07:42:09;;;;;;;28.63;17.67;;;;;;;;;;5053095;28;20410;-78
2023/12/08 07:44:35;;;;;;;29.93;17.33;;;;;;;;;;5052693;28;20494;-78
2023/12/08 07:47:01;;;;;;;30.53;18.77;;;;;;;;;;5053029;28;20563;-79
2023/12/08 07:49:27;;;;;;;32.50;18.43;;;;;;;;;;5052956;28;20513;-78
2023/12/08 07:51:53;;;;;;;27.67;17.77;;;;;;;;;;5053094;28;20404;-78
2023/12/08 07:54:19;;;;;;;33.60;19.17;;;;;;;;;;5011766;28;20990;-78
2023/12/08 07:56:44;;;;;;;21.67;14.27;;;;;;;;;;5052925;28;20461;-80
2023/12/08 07:59:10;;;;;;;26.37;15.60;;;;;;;;;;5052643;28;20786;-77
2023/12/08 08:01:36;;;;;;;31.43;18.30;;;;;;;;;;5052925;28;20422;-78
2023/12/08 08:04:02;;;;;;;33.63;19.63;;;;;;;;;;5053119;28;20425;-76
2023/12/08 08:06:28;;;;;;;30.30;18.50;;;;;;;;;;5052832;28;20537;-77
2023/12/08 08:08:54;;;;;;;23.83;15.17;;;;;;;;;;5052965;28;20490;-79
2023/12/08 08:11:20;;;;;;;33.07;17.93;;;;;;;;;;5052832;28;20403;-78
2023/12/08 08:13:46;;;;;;;25.53;16.23;;;;;;;;;;5052302;28;20470;-77
2023/12/08 08:16:12;;;;;;;28.27;19.50;;;;;;;;;;5052653;28;20448;-77
2023/12/08 08:18:38;;;;;;;32.73;18.10;;;;;;;;;;5034852;28;20817;-78
2023/12/08 08:21:04;;;;;;;31.43;16.40;;;;;;;;;;5052834;28;20416;-78
2023/12/08 08:23:31;;;;;;;31.27;19.80;;;;;;;;;;5052665;28;20402;-80
2023/12/08 08:25:56;;;;;;;31.33;17.93;;;;;;;;;;5052639;28;20470;-77
2023/12/08 08:28:24;;;;;;;30.87;19.07;;;;;;;;;;5034765;28;20416;-81
2023/12/08 08:30:49;;;;;;;28.20;17.07;;;;;;;;;;5056243;28;20876;-79
2023/12/08 08:33:15;;;;;;;37.97;19.63;;;;;;;;;;5056085;28;20436;-81
2023/12/08 08:35:41;;;;;;;25.40;17.30;;;;;;;;;;5056012;28;20506;-82
2023/12/08 08:38:07;;;;;;;32.07;19.23;;;;;;;;;;5055851;28;20419;-80
2023/12/08 08:40:33;;;;;;;30.77;17.70;;;;;;;;;;5056323;28;20416;-79
2023/12/08 08:42:59;;;;;;;28.90;18.93;;;;;;;;;;5056128;28;20908;-80
2023/12/08 08:45:26;;;;;;;33.73;20.10;;;;;;;;;;5056338;28;20483;-78
2023/12/08 08:47:51;;;;;;;34.33;21.40;;;;;;;;;;5056290;28;20479;-76
2023/12/08 08:50:17;;;;;;;35.72;22.58;;;;;;;;;;5055552;28;20400;-80
2023/12/08 08:52:43;;;;;;;35.27;21.10;;;;;;;;;;5056422;28;20231;-77
2023/12/08 08:55:10;;;;;;;32.57;20.10;;;;;;;;;;5015165;28;20436;-77
2023/12/08 08:57:36;;;;;;;28.77;18.03;;;;;;;;;;5055966;28;20416;-77
2023/12/08 09:00:05;;;;;;;29.60;19.40;;;;;;;;;;5056034;28;20427;-77
2023/12/08 09:02:31;;;;;;;25.57;15.27;;;;;;;;;;5055944;28;20405;-78
2023/12/08 09:04:57;;;;;;;31.03;18.07;;;;;;;;;;5056171;28;20414;-77
2023/12/08 09:07:23;;;;;;;32.43;19.57;;;;;;;;;;5055863;28;20995;-77
2023/12/08 09:09:49;;;;;;;28.97;16.97;;;;;;;;;;5056007;28;20407;-79
2023/12/08 09:12:15;;;;;;;29.20;17.77;;;;;;;;;;5037852;28;21207;-78
2023/12/08 09:14:41;;;;;;;26.50;15.97;;;;;;;;;;5055562;28;20416;-79
2023/12/08 09:17:07;;;;;;;29.33;16.43;;;;;;;;;;5055911;28;20418;-79
2023/12/08 09:19:33;;;;;;;30.40;18.57;;;;;;;;;;5055884;28;20482;-76
2023/12/08 09:21:59;;;;;;;24.30;13.13;;;;;;;;;;5055785;28;20423;-75
2023/12/08 09:24:25;;;;;;;31.90;19.40;;;;;;;;;;5055731;28;20500;-76
2023/12/08 09:26:52;;;;;;;30.93;18.13;;;;;;;;;;5055615;28;20475;-79
2023/12/08 09:29:18;;;;;;;29.07;16.50;;;;;;;;;;5055204;28;20495;-78
2023/12/08 09:31:44;;;;;;;28.90;15.77;;;;;;;;;;5055660;28;20528;-78
2023/12/08 09:34:10;;;;;;;31.67;16.93;;;;;;;;;;5055515;28;20908;-78
2023/12/08 09:36:36;;;;;;;33.63;19.17;;;;;;;;;;5055439;28;20451;-78
2023/12/08 09:39:04;;;;;;;28.57;16.53;;;;;;;;;;5055468;28;20459;-78
2023/12/08 09:41:30;;;;;;;23.07;14.73;;;;;;;;;;5054964;28;20420;-79
2023/12/08 09:44:12;;;;;;;29.50;16.63;;;;;;;;;;5055091;28;20410;-78
2023/12/08 09:46:42;;;;;;;30.67;18.50;;;;;;;;;;5055267;28;20467;-78
2023/12/08 09:49:12;;;;;;;30.57;20.60;;;;;;;;;;5055432;28;20451;-79
2023/12/08 09:51:38;;;;;;;29.53;17.73;;;;;;;;;;5055223;28;20400;-78
2023/12/08 09:54:05;;;;;;;26.77;17.00;;;;;;;;;;5053229;28;20436;-78
2023/12/08 09:56:31;;;;;;;25.57;16.17;;;;;;;;;;5055107;28;20417;-79
2023/12/08 09:58:57;;;;;;;29.53;17.00;;;;;;;;;;5054780;28;20421;-78
2023/12/08 10:01:23;;;;;;;28.60;18.80;;;;;;;;;;5054839;28;20447;-82
2023/12/08 10:03:49;;;;;;;23.60;15.80;;;;;;;;;;5054728;28;20441;-76
2023/12/08 10:06:15;;;;;;;25.67;16.27;;;;;;;;;;5054632;28;20480;-78
2023/12/08 10:08:48;;;;;;;28.90;17.23;;;;;;;;;;5054821;28;20889;-77
2023/12/08 10:11:15;;;;;;;25.03;16.77;;;;;;;;;;5054916;28;20416;-82
2023/12/08 10:13:42;;;;;;;26.37;17.77;;;;;;;;;;5054096;28;20466;-80
2023/12/08 10:16:08;;;;;;;23.50;15.10;;;;;;;;;;5054729;28;20514;-80
2023/12/08 10:18:34;;;;;;;25.23;16.53;;;;;;;;;;5054719;28;20443;-80
2023/12/08 10:21:16;;;;;;;21.07;13.83;;;;;;;;;;5054515;28;20412;-79
2023/12/08 10:23:46;;;;;;;24.93;15.20;;;;;;;;;;5054271;28;20483;-80
2023/12/08 10:26:16;;;;;;;27.60;16.87;;;;;;;;;;5054427;28;20559;-78
2023/12/08 10:28:45;;;;;;;26.30;16.77;;;;;;;;;;5053930;28;20471;-79
2023/12/08 10:31:11;;;;;;;24.70;14.87;;;;;;;;;;5054408;28;20799;-79
2023/12/08 10:33:40;;;;;;;21.83;15.00;;;;;;;;;;5054241;28;20441;-79
2023/12/08 10:36:06;;;;;;;26.37;16.80;;;;;;;;;;5054291;28;20426;-79
2023/12/08 10:38:32;;;;;;;25.13;16.60;;;;;;;;;;5054211;28;20764;-80
2023/12/08 10:40:57;;;;;;;25.33;16.47;;;;;;;;;;5000315;28;20433;-76
2023/12/08 10:43:25;;;;;;;27.57;16.97;;;;;;;;;;5049764;28;20476;-78
2023/12/08 10:45:51;;;;;;;26.13;14.90;;;;;;;;;;5053668;28;20468;-78
2023/12/08 10:48:19;;;;;;;31.30;17.83;;;;;;;;;;5054123;28;20828;-78
2023/12/08 10:50:46;;;;;;;27.33;17.83;;;;;;;;;;5054123;28;20408;-78
2023/12/08 10:53:13;;;;;;;29.30;16.67;;;;;;;;;;5052978;28;20408;-78
2023/12/08 10:55:39;;;;;;;30.63;18.53;;;;;;;;;;5035739;28;20472;-78
2023/12/08 10:58:06;;;;;;;26.70;15.40;;;;;;;;;;5053677;28;20423;-78
2023/12/08 11:00:32;;;;;;;25.43;16.90;;;;;;;;;;5053963;28;20738;-79
2023/12/08 11:02:59;;;;;;;23.90;14.00;;;;;;;;;;5053656;28;20427;-78
2023/12/08 11:05:37;;;;;;;28.90;17.47;;;;;;;;;;5053659;28;20408;-78
2023/12/08 11:08:06;;;;;;;24.23;16.00;;;;;;;;;;5069333;28;20530;-77
2023/12/08 11:10:35;;;;;;;29.00;18.10;;;;;;;;;;5053680;28;20410;-78
2023/12/08 11:13:07;;;;;;;22.43;16.07;;;;;;;;;;5053189;28;21007;-78
2023/12/08 11:15:34;;;;;;;25.10;16.27;;;;;;;;;;5053720;28;20899;-79
2023/12/08 11:18:12;;;;;;;26.33;16.00;;;;;;;;;;5053645;28;20469;-78
2023/12/08 11:20:39;;;;;;;16.50;11.67;;;;;;;;;;5053008;28;20420;-78
2023/12/08 11:23:05;;;;;;;25.77;16.70;;;;;;;;;;5050881;28;20848;-80
2023/12/08 11:25:34;;;;;;;24.57;15.00;;;;;;;;;;5052519;28;20511;-79
2023/12/08 11:28:06;;;;;;;26.10;16.53;;;;;;;;;;5052178;28;20887;-78
2023/12/08 11:30:40;;;;;;;25.40;17.37;;;;;;;;;;5052664;28;20427;-80
2023/12/08 11:33:20;;;;;;;28.77;17.70;;;;;;;;;;5053245;28;21006;-78
2023/12/08 11:35:52;;;;;;;30.13;18.43;;;;;;;;;;5053070;28;20767;-80
2023/12/08 11:38:31;;;;;;;30.23;17.83;;;;;;;;;;5053152;28;20446;-80
2023/12/08 11:40:57;;;;;;;26.30;17.83;;;;;;;;;;5053081;28;20414;-80
2023/12/08 11:43:23;;;;;;;28.17;18.00;;;;;;;;;;5034833;28;20425;-79
2023/12/08 11:45:51;;;;;;;29.33;17.40;;;;;;;;;;5052869;28;20962;-78
2023/12/08 11:48:22;;;;;;;21.50;14.23;;;;;;;;;;5012790;28;20474;-78
2023/12/08 11:50:49;;;;;;;29.60;17.73;;;;;;;;;;5052885;28;20400;-79
2023/12/08 11:53:15;;;;;;;34.90;18.43;;;;;;;;;;5052951;28;20420;-79
2023/12/08 11:55:41;;;;;;;26.73;16.07;;;;;;;;;;5052674;28;20412;-78
2023/12/08 11:58:09;;;;;;;26.20;17.40;;;;;;;;;;5052587;28;20947;-79
2023/12/08 12:00:35;;;;;;;24.67;15.13;;;;;;;;;;5052875;28;20445;-79
2023/12/08 12:03:02;;;;;;;27.67;18.27;;;;;;;;;;5052665;28;20416;-79
2023/12/08 12:05:28;;;;;;;21.47;14.13;;;;;;;;;;5034697;28;20423;-80
2023/12/08 12:07:55;;;;;;;29.57;17.40;;;;;;;;;;5034830;28;20445;-81
2023/12/08 12:10:25;;;;;;;28.50;17.30;;;;;;;;;;5052755;28;20474;-81
2023/12/08 12:12:55;;;;;;;29.80;18.00;;;;;;;;;;5052304;28;20956;-80
2023/12/08 12:15:23;;;;;;;28.50;18.10;;;;;;;;;;5044309;28;20832;-79
2023/12/08 12:17:51;;;;;;;26.30;16.90;;;;;;;;;;5054012;28;20619;-82
2023/12/08 12:20:17;;;;;;;24.33;15.53;;;;;;;;;;5052780;28;20573;-78
2023/12/08 12:22:43;;;;;;;25.10;15.33;;;;;;;;;;5052828;28;20961;-80
2023/12/08 12:25:10;;;;;;;27.43;17.30;;;;;;;;;;5052401;28;20767;-85
2023/12/08 12:27:40;;;;;;;26.40;14.27;;;;;;;;;;5052265;28;20470;-85
2023/12/08 12:30:07;;;;;;;28.30;16.90;;;;;;;;;;5051456;28;20801;-81
2023/12/08 12:32:32;;;;;;;26.93;17.37;;;;;;;;;;5052086;28;20427;-84
2023/12/08 12:34:58;;;;;;;25.63;16.87;;;;;;;;;;5052398;28;20443;-85
2023/12/08 12:37:25;;;;;;;25.37;15.97;;;;;;;;;;5052431;28;20416;-84
2023/12/08 12:39:51;;;;;;;24.03;15.57;;;;;;;;;;5052171;28;20806;-85
2023/12/08 12:42:18;;;;;;;28.33;16.83;;;;;;;;;;5050681;28;20519;-84
2023/12/08 12:44:45;;;;;;;27.17;19.33;;;;;;;;;;5052071;28;20401;-83
2023/12/08 12:47:11;;;;;;;25.80;15.70;;;;;;;;;;5051935;28;20468;-84
2023/12/08 12:49:38;;;;;;;32.40;19.03;;;;;;;;;;5052154;28;20519;-86
2023/12/08 12:52:19;;;;;;;30.40;18.03;;;;;;;;;;5052210;28;20450;-84
2023/12/08 12:54:45;;;;;;;30.13;19.03;;;;;;;;;;5051964;28;20502;-82
2023/12/08 12:57:11;;;;;;;26.43;17.33;;;;;;;;;;5051483;28;20451;-81
2023/12/08 12:59:50;;;;;;;26.37;16.37;;;;;;;;;;5051921;28;20444;-79
2023/12/08 13:02:15;;;;;;;24.93;16.23;;;;;;;;;;5011373;28;20424;-79
2023/12/08 13:04:42;;;;;;;20.63;12.80;;;;;;;;;;5050697;28;20498;-81
2023/12/08 13:07:14;;;;;;;31.73;19.87;;;;;;;;;;5051448;28;20502;-82
2023/12/08 13:09:40;;;;;;;31.20;19.53;;;;;;;;;;5049238;28;20999;-81
2023/12/08 13:12:07;;;;;;;28.37;17.57;;;;;;;;;;5050870;28;20416;-81
2023/12/08 13:14:33;;;;;;;28.60;17.97;;;;;;;;;;5052001;28;20450;-79
2023/12/08 13:16:59;;;;;;;31.47;19.30;;;;;;;;;;5054539;28;20421;-81
2023/12/08 13:19:25;;;;;;;32.53;21.13;;;;;;;;;;5055488;28;20420;-79
2023/12/08 13:21:50;;;;;;;32.47;21.13;;;;;;;;;;5055350;28;20892;-79
2023/12/08 13:24:16;;;;;;;33.17;21.97;;;;;;;;;;5054795;28;20424;-79
2023/12/08 13:26:42;;;;;;;30.67;18.23;;;;;;;;;;5054652;28;20476;-78
2023/12/08 13:29:08;;;;;;;36.80;20.27;;;;;;;;;;5054823;28;20415;-78
2023/12/08 13:31:34;;;;;;;26.57;17.63;;;;;;;;;;5055098;28;20464;-79
2023/12/08 13:34:00;;;;;;;27.70;17.23;;;;;;;;;;5055169;28;20423;-78
2023/12/08 13:36:26;;;;;;;31.57;19.30;;;;;;;;;;5055206;28;20419;-79
2023/12/08 13:38:52;;;;;;;35.77;21.90;;;;;;;;;;5055033;28;20415;-78
2023/12/08 13:41:18;;;;;;;36.47;21.90;;;;;;;;;;5055098;28;20487;-79
2023/12/08 13:43:44;;;;;;;44.97;25.37;;;;;;;;;;5030622;28;20525;-81
2023/12/08 13:46:10;;;;;;;35.33;23.00;;;;;;;;;;5054634;28;20457;-78
2023/12/08 13:48:36;;;;;;;38.47;22.73;;;;;;;;;;5054944;28;20513;-78
2023/12/08 13:51:02;;;;;;;29.03;19.67;;;;;;;;;;5054755;28;20975;-78
2023/12/08 13:53:28;;;;;;;30.43;18.20;;;;;;;;;;5054858;28;20421;-79
2023/12/08 13:55:55;;;;;;;30.67;19.00;;;;;;;;;;5054299;28;20458;-79
2023/12/08 13:58:21;;;;;;;27.67;18.07;;;;;;;;;;5054101;28;20423;-78
2023/12/08 14:00:46;;;;;;;33.07;19.67;;;;;;;;;;5054626;28;20923;-78
2023/12/08 14:03:12;;;;;;;36.43;22.27;;;;;;;;;;5026878;28;20878;-80
2023/12/08 14:05:38;;;;;;;31.80;18.80;;;;;;;;;;5022908;28;20420;-80
2023/12/08 14:08:04;;;;;;;27.67;16.30;;;;;;;;;;5054493;28;20426;-83
2023/12/08 14:10:30;;;;;;;32.43;17.67;;;;;;;;;;5054408;28;20413;-79
2023/12/08 14:12:56;;;;;;;37.40;23.75;;;;;;;;;;5052613;28;20431;-79